Time;durP1;ratioP1;P1;durP2;ratioP2;P2;SDS_P1;SDS_P2;PMS_P1;PMS_P2;Temp;Humidity;BMP_temperature;BMP_pressure;BME280_temperature;BME280_humidity;BME280_pressure;Samples;Min_cycle;Max_cycle;Signal;HPM_P1;HPM_P2
2022/05/21 00:02:19;;;;;;;7.50;6.30;;;;;;;13.29;77.01;100509.63;5109533;28;20501;-63
2022/05/21 00:04:47;;;;;;;7.57;6.80;;;;;;;13.36;75.73;100517.97;5093539;28;20464;-62
2022/05/21 00:07:13;;;;;;;7.37;6.60;;;;;;;13.41;76.31;100520.19;5099299;28;20477;-62
2022/05/21 00:09:41;;;;;;;6.83;6.13;;;;;;;13.43;76.51;100527.09;5104611;28;20914;-62
2022/05/21 00:12:08;;;;;;;6.53;5.93;;;;;;;13.58;76.21;100529.28;5120695;28;20581;-63
2022/05/21 00:14:35;;;;;;;6.80;5.40;;;;;;;13.81;75.16;100532.31;5119229;28;20474;-62
2022/05/21 00:17:02;;;;;;;6.70;5.97;;;;;;;13.56;75.84;100535.63;5107082;28;20538;-62
2022/05/21 00:19:28;;;;;;;8.83;5.83;;;;;;;13.43;75.74;100535.16;5100110;28;20443;-63
2022/05/21 00:21:55;;;;;;;6.23;5.63;;;;;;;13.40;75.95;100542.66;5096192;28;20575;-63
2022/05/21 00:24:21;;;;;;;6.87;6.17;;;;;;;13.32;75.35;100552.34;5121063;28;20482;-63
2022/05/21 00:26:49;;;;;;;7.07;6.37;;;;;;;13.28;76.28;100542.88;5114624;28;21218;-63
2022/05/21 00:29:20;;;;;;;6.47;5.60;;;;;;;13.46;75.72;100550.97;5096693;28;20482;-62
2022/05/21 00:31:46;;;;;;;8.90;6.10;;;;;;;13.40;75.41;100532.75;5101909;28;20506;-62
2022/05/21 00:34:13;;;;;;;6.60;6.00;;;;;;;13.31;76.09;100557.81;5105915;28;20506;-63
2022/05/21 00:36:39;;;;;;;7.40;6.13;;;;;;;13.30;75.71;100559.66;5113065;28;20478;-62
2022/05/21 00:39:06;;;;;;;6.03;5.40;;;;;;;13.23;75.54;100550.53;5120067;28;20592;-63
2022/05/21 00:41:32;;;;;;;8.33;5.63;;;;;;;13.36;75.60;100555.56;5120677;28;20545;-63
2022/05/21 00:44:02;;;;;;;6.63;5.70;;;;;;;13.33;75.00;100551.34;5119020;28;21108;-63
2022/05/21 00:46:34;;;;;;;8.87;6.00;;;;;;;13.26;75.70;100560.09;5119431;28;20458;-63
2022/05/21 00:49:05;;;;;;;9.83;5.87;;;;;;;13.29;75.69;100552.59;5121330;28;20513;-62
2022/05/21 00:51:41;;;;;;;7.33;5.40;;;;;;;13.33;74.78;100559.41;5118781;28;20462;-63
2022/05/21 00:54:09;;;;;;;7.17;6.10;;;;;;;13.30;74.32;100564.19;5120795;28;20492;-62
2022/05/21 00:56:38;;;;;;;8.40;5.83;;;;;;;13.26;74.62;100560.09;5120350;28;20502;-62
2022/05/21 01:01:53;;;;;;;6.07;5.40;;;;;;;13.25;74.58;100563.81;5113656;28;20473;-63
2022/05/21 01:04:20;;;;;;;7.50;5.50;;;;;;;13.25;74.28;100572.69;5117929;28;20561;-63
2022/05/21 01:06:46;;;;;;;8.70;5.87;;;;;;;13.24;74.42;100576.38;5093125;28;20474;-63
2022/05/21 01:09:13;;;;;;;9.70;6.20;;;;;;;13.39;74.25;100582.13;5115516;28;20481;-63
2022/05/21 01:11:40;;;;;;;8.30;5.30;;;;;;;13.32;74.49;100584.56;5119787;28;20850;-63
2022/05/21 01:14:11;;;;;;;10.00;6.50;;;;;;;13.50;73.33;100581.06;5120790;28;20446;-62
2022/05/21 01:16:38;;;;;;;6.87;5.57;;;;;;;13.07;73.83;100575.34;5120103;28;20512;-62
2022/05/21 01:19:08;;;;;;;8.50;6.10;;;;;;;12.97;73.91;100580.75;5120474;28;20509;-62
2022/05/21 01:21:36;;;;;;;11.60;6.70;;;;;;;12.89;73.13;100588.69;5111829;28;20927;-62
2022/05/21 01:24:05;;;;;;;8.90;7.50;;;;;;;12.87;72.44;100585.31;5112266;28;20464;-62
2022/05/21 01:26:32;;;;;;;6.90;6.03;;;;;;;12.95;72.46;100581.88;5099972;28;20538;-62
2022/05/21 01:28:59;;;;;;;8.70;6.63;;;;;;;12.87;72.97;100588.00;5117465;28;20577;-62
2022/05/21 01:31:26;;;;;;;10.13;6.40;;;;;;;12.79;72.87;100591.44;5119823;28;20854;-62
2022/05/21 01:33:52;;;;;;;7.67;6.30;;;;;;;12.92;72.92;100584.88;5113463;28;20462;-62
2022/05/21 01:36:19;;;;;;;10.33;6.50;;;;;;;12.95;73.30;100589.94;5120672;28;20505;-62
2022/05/21 01:38:47;;;;;;;8.77;7.60;;;;;;;12.71;73.09;100582.41;5119958;28;20466;-62
2022/05/21 01:41:15;;;;;;;8.20;7.40;;;;;;;12.74;73.38;100585.66;5119565;28;20509;-62
2022/05/21 01:46:26;;;;;;;9.37;8.37;;;;;;;12.81;73.60;100577.84;5103866;28;20840;-63
2022/05/21 01:48:52;;;;;;;12.60;10.00;;;;;;;12.80;73.84;100577.00;5116815;28;20564;-63
2022/05/21 01:51:19;;;;;;;12.37;10.93;;;;;;;12.81;74.37;100583.19;5122696;28;20553;-63
2022/05/21 01:53:46;;;;;;;13.03;11.73;;;;;;;12.77;74.97;100576.44;5123647;28;20521;-62
2022/05/21 01:56:15;;;;;;;14.60;12.63;;;;;;;12.62;75.59;100576.94;5123283;28;20544;-63
2022/05/21 01:58:42;;;;;;;15.67;13.57;;;;;;;12.66;75.68;100574.78;5122901;28;20484;-63
2022/05/21 02:01:10;;;;;;;16.73;12.77;;;;;;;12.58;75.90;100577.34;5118661;28;20494;-62
2022/05/21 02:03:37;;;;;;;14.53;12.97;;;;;;;12.53;75.83;100572.41;5123431;28;20533;-63
2022/05/21 02:06:04;;;;;;;16.13;13.77;;;;;;;12.40;76.90;100583.47;5121283;28;20500;-62
2022/05/21 02:08:31;;;;;;;14.37;12.87;;;;;;;12.42;76.82;100586.00;5122615;28;20512;-63
2022/05/21 02:10:57;;;;;;;14.37;12.77;;;;;;;12.46;76.52;100581.19;5120288;28;20549;-62
2022/05/21 02:13:27;;;;;;;14.90;12.30;;;;;;;12.22;77.26;100586.06;5122015;28;20465;-62
2022/05/21 02:15:54;;;;;;;15.50;12.90;;;;;;;12.27;77.58;100585.59;5105811;28;21020;-63
2022/05/21 02:18:21;;;;;;;14.17;12.50;;;;;;;12.30;77.56;100589.84;5122706;28;20477;-62
2022/05/21 02:20:48;;;;;;;14.80;13.30;;;;;;;12.09;77.81;100581.97;5122164;28;20486;-63
2022/05/21 02:23:15;;;;;;;14.97;13.50;;;;;;;12.21;77.96;100581.66;5122318;28;20457;-63
2022/05/21 02:25:42;;;;;;;16.47;13.67;;;;;;;12.17;78.37;100580.28;5121403;28;20910;-63
2022/05/21 02:28:09;;;;;;;15.00;12.90;;;;;;;12.27;78.04;100577.56;5108397;28;20538;-62
2022/05/21 02:30:37;;;;;;;15.77;13.23;;;;;;;12.23;78.41;100589.56;5117205;28;20461;-62
2022/05/21 02:33:04;;;;;;;16.03;14.33;;;;;;;12.08;78.82;100578.44;5114168;28;20481;-63
2022/05/21 02:35:30;;;;;;;15.03;13.43;;;;;;;12.28;78.71;100571.22;5121268;28;20508;-63
2022/05/21 02:40:41;;;;;;;17.80;13.87;;;;;;;12.35;78.72;100576.84;5121558;28;20468;-63
2022/05/21 02:43:09;;;;;;;17.20;14.53;;;;;;;12.33;78.25;100568.97;5123609;28;20446;-63
2022/05/21 02:45:37;;;;;;;16.10;14.40;;;;;;;12.36;78.57;100567.81;5121885;28;20492;-63
2022/05/21 02:48:04;;;;;;;16.37;14.60;;;;;;;12.44;78.38;100570.63;5123115;28;20509;-63
2022/05/21 02:50:33;;;;;;;17.87;15.87;;;;;;;12.35;78.15;100564.28;5122807;28;20486;-64
2022/05/21 02:53:01;;;;;;;21.23;16.53;;;;;;;12.43;78.08;100569.78;5123566;28;20434;-64
2022/05/21 02:55:27;;;;;;;15.33;13.37;;;;;;;12.41;78.08;100566.41;5121105;28;20545;-64
2022/05/21 02:57:55;;;;;;;15.53;13.90;;;;;;;12.56;77.66;100561.41;5123660;28;20510;-64
2022/05/21 03:00:23;;;;;;;19.00;15.90;;;;;;;12.55;77.85;100559.72;5122198;28;20482;-64
2022/05/21 03:02:51;;;;;;;19.63;16.83;;;;;;;12.53;77.96;100553.66;5123043;28;20506;-64
2022/05/21 03:05:19;;;;;;;20.83;17.70;;;;;;;12.54;77.56;100549.97;5122490;28;20449;-64
2022/05/21 03:07:47;;;;;;;18.43;15.73;;;;;;;12.63;77.60;100551.78;5122640;28;20456;-64
2022/05/21 03:10:23;;;;;;;19.37;16.93;;;;;;;12.67;77.59;100554.19;5121527;28;20532;-64
2022/05/21 03:12:51;;;;;;;19.73;17.03;;;;;;;12.71;77.63;100550.22;5121304;28;20444;-64
2022/05/21 03:15:18;;;;;;;18.13;16.23;;;;;;;12.68;77.48;100553.19;5121712;27;20465;-63
2022/05/21 03:17:46;;;;;;;19.17;17.10;;;;;;;12.77;77.47;100546.94;5122639;28;20443;-64
2022/05/21 03:20:15;;;;;;;21.13;16.57;;;;;;;12.62;78.19;100557.31;5122255;28;20454;-64
2022/05/21 03:22:42;;;;;;;21.43;17.40;;;;;;;12.75;77.32;100548.94;5122528;28;20514;-63
2022/05/21 03:25:10;;;;;;;22.77;19.57;;;;;;;12.54;77.75;100549.16;5120980;28;20481;-64
2022/05/21 03:27:37;;;;;;;22.80;18.37;;;;;;;12.58;77.62;100545.16;5121578;28;20470;-64
2022/05/21 03:30:05;;;;;;;21.47;19.17;;;;;;;12.73;77.41;100549.06;5122761;28;20472;-64
2022/05/21 03:32:32;;;;;;;23.00;19.90;;;;;;;12.75;77.54;100544.41;5121921;28;20468;-64
2022/05/21 03:34:58;;;;;;;22.87;20.40;;;;;;;12.73;77.41;100534.81;5121565;28;20522;-64
2022/05/21 03:37:26;;;;;;;23.87;19.97;;;;;;;12.80;76.75;100543.97;5122005;28;20485;-64
2022/05/21 03:39:53;;;;;;;25.17;21.23;;;;;;;12.83;76.64;100543.69;5121377;28;20482;-64
2022/05/21 03:42:20;;;;;;;21.87;19.37;;;;;;;12.81;76.83;100545.63;5121861;28;20482;-64
2022/05/21 03:44:47;;;;;;;25.90;19.63;;;;;;;12.78;77.56;100541.44;5120993;28;20449;-64
2022/05/21 03:47:13;;;;;;;28.93;23.50;;;;;;;12.60;77.84;100552.09;5121515;27;20541;-64
2022/05/21 03:49:40;;;;;;;27.33;21.10;;;;;;;12.68;78.11;100532.56;5122445;28;20471;-64
2022/05/21 03:52:08;;;;;;;28.10;21.70;;;;;;;12.68;77.80;100537.09;5118146;28;20499;-64
2022/05/21 03:54:36;;;;;;;30.30;26.20;;;;;;;12.76;77.23;100531.84;5107855;28;21089;-63
2022/05/21 03:57:04;;;;;;;34.17;26.37;;;;;;;12.77;77.00;100533.53;5114327;28;20502;-62
2022/05/21 03:59:30;;;;;;;28.17;25.17;;;;;;;12.59;77.36;100530.78;5122250;28;20435;-63
2022/05/21 04:01:57;;;;;;;32.40;24.90;;;;;;;12.73;77.58;100532.13;5120038;28;21071;-63
2022/05/21 04:04:23;;;;;;;30.73;27.23;;;;;;;12.70;77.79;100543.16;5121427;28;20481;-63
2022/05/21 04:06:50;;;;;;;32.00;26.23;;;;;;;12.73;77.69;100553.59;5121805;28;20553;-63
2022/05/21 04:09:17;;;;;;;28.17;25.17;;;;;;;12.79;77.36;100548.50;5120274;28;20466;-63
2022/05/21 04:11:45;;;;;;;31.57;25.23;;;;;;;12.70;77.46;100541.31;5121274;28;20507;-63
2022/05/21 04:14:14;;;;;;;32.83;25.13;;;;;;;12.60;77.84;100554.78;5120154;28;20553;-62
2022/05/21 04:16:41;;;;;;;29.57;26.37;;;;;;;12.73;77.47;100561.66;5120367;28;20477;-63
2022/05/21 04:19:07;;;;;;;30.10;24.90;;;;;;;12.84;77.14;100558.75;5121542;28;20474;-63
2022/05/21 04:21:34;;;;;;;31.37;25.50;;;;;;;12.83;77.28;100559.78;5120832;28;20494;-63
2022/05/21 04:24:01;;;;;;;32.83;26.20;;;;;;;12.91;77.27;100562.53;5120720;28;20446;-63
2022/05/21 04:26:27;;;;;;;29.53;24.50;;;;;;;13.02;76.29;100558.84;5119300;28;20497;-63
2022/05/21 04:28:55;;;;;;;27.83;24.43;;;;;;;12.87;76.30;100560.31;5121700;28;20510;-64
2022/05/21 04:31:22;;;;;;;28.70;25.47;;;;;;;12.86;77.03;100553.25;5120792;28;20469;-63
2022/05/21 04:33:48;;;;;;;27.93;24.93;;;;;;;12.90;76.33;100557.34;5120260;28;20801;-63
2022/05/21 04:36:22;;;;;;;30.50;25.03;;;;;;;12.80;76.68;100568.13;5120505;28;20497;-63
2022/05/21 04:38:51;;;;;;;28.97;23.53;;;;;;;12.73;76.60;100567.84;5104942;28;20523;-63
2022/05/21 04:41:17;;;;;;;27.20;24.40;;;;;;;12.95;76.77;100563.09;5119614;28;20513;-63
2022/05/21 04:43:44;;;;;;;29.07;24.90;;;;;;;12.77;77.21;100563.03;5121311;28;20462;-62
2022/05/21 04:46:12;;;;;;;25.90;22.87;;;;;;;12.98;76.68;100555.63;5121271;27;20497;-62
2022/05/21 04:48:39;;;;;;;31.27;21.90;;;;;;;12.96;76.15;100564.78;5121672;28;21262;-63
2022/05/21 04:51:06;;;;;;;26.00;23.20;;;;;;;13.03;76.28;100568.56;5120823;28;20494;-63
2022/05/21 04:53:33;;;;;;;26.50;22.30;;;;;;;12.84;77.04;100564.13;5121569;28;20869;-63
2022/05/21 04:55:59;;;;;;;26.87;22.87;;;;;;;12.84;76.85;100561.44;5117762;28;20541;-63
2022/05/21 04:58:26;;;;;;;26.37;21.80;;;;;;;12.86;76.81;100564.81;5121347;28;20486;-63
2022/05/21 05:00:52;;;;;;;23.20;18.53;;;;;;;12.82;77.00;100553.53;5120731;28;20528;-62
2022/05/21 05:03:20;;;;;;;24.23;21.63;;;;;;;12.87;76.55;100565.69;5121843;28;20478;-63
2022/05/21 05:05:47;;;;;;;33.83;20.07;;;;;;;12.96;76.24;100560.25;5120664;28;20475;-63
2022/05/21 05:08:15;;;;;;;24.33;19.97;;;;;;;12.97;76.41;100569.19;5120947;28;20513;-63
2022/05/21 05:10:42;;;;;;;23.60;20.10;;;;;;;12.88;76.64;100570.03;5118520;28;20572;-62
2022/05/21 05:13:09;;;;;;;25.20;20.50;;;;;;;12.94;76.93;100564.94;5120601;28;20470;-63
2022/05/21 05:15:36;;;;;;;23.60;19.57;;;;;;;12.87;77.30;100569.22;5119719;28;21060;-63
2022/05/21 05:18:03;;;;;;;21.60;19.03;;;;;;;12.98;77.13;100574.41;5121230;28;20454;-62
2022/05/21 05:20:31;;;;;;;26.23;19.80;;;;;;;12.86;77.33;100567.50;5099728;28;20489;-63
2022/05/21 05:22:58;;;;;;;24.30;20.47;;;;;;;12.95;76.94;100573.81;5121079;28;20434;-63
2022/05/21 05:25:25;;;;;;;24.20;19.43;;;;;;;12.91;77.39;100569.75;5121010;28;21006;-64
2022/05/21 05:27:52;;;;;;;23.93;19.07;;;;;;;13.04;77.24;100581.00;5105192;28;20511;-65
2022/05/21 05:30:20;;;;;;;24.57;19.30;;;;;;;13.15;76.95;100588.00;5122128;28;20505;-63
2022/05/21 05:32:47;;;;;;;23.50;19.10;;;;;;;13.26;76.32;100581.59;5123451;28;20703;-63
2022/05/21 05:35:14;;;;;;;20.60;17.43;;;;;;;13.15;77.22;100582.63;5122325;28;20479;-63
2022/05/21 05:37:42;;;;;;;22.67;18.40;;;;;;;13.17;76.92;100578.81;5123943;28;20532;-65
2022/05/21 05:40:12;;;;;;;19.67;16.70;;;;;;;13.06;76.94;100570.13;5116780;28;20457;-66
2022/05/21 05:42:40;;;;;;;22.13;17.90;;;;;;;13.13;77.01;100576.59;5124850;28;20552;-66
2022/05/21 05:45:08;;;;;;;21.97;17.10;;;;;;;13.11;77.79;100570.53;5123383;27;21122;-66
2022/05/21 05:47:35;;;;;;;22.90;17.50;;;;;;;13.01;78.11;100581.28;5124056;28;20515;-65
2022/05/21 05:50:01;;;;;;;22.60;18.10;;;;;;;13.05;78.21;100582.69;5124852;28;20491;-64
2022/05/21 05:52:29;;;;;;;22.73;18.80;;;;;;;12.90;79.03;100586.88;5122791;28;20532;-65
2022/05/21 05:54:57;;;;;;;23.53;19.30;;;;;;;12.99;78.96;100578.75;5115300;28;20462;-65
2022/05/21 05:57:24;;;;;;;24.30;18.00;;;;;;;13.00;78.45;100584.97;5109662;27;20490;-65
2022/05/21 05:59:51;;;;;;;19.60;17.50;;;;;;;12.96;78.65;100594.31;5123624;28;20442;-63
2022/05/21 06:05:03;;;;;;;23.87;17.47;;;;;;;13.22;77.76;100601.69;5099596;28;20967;-64
2022/05/21 06:07:30;;;;;;;20.87;18.43;;;;;;;12.93;79.06;100608.88;5104623;28;20474;-64
2022/05/21 06:10:03;;;;;;;26.43;20.00;;;;;;;13.12;79.21;100593.66;5120209;28;20493;-64
2022/05/21 06:12:31;;;;;;;25.93;18.30;;;;;;;13.32;78.39;100602.53;5108632;28;20480;-65
2022/05/21 06:14:58;;;;;;;23.37;18.47;;;;;;;13.21;78.43;100603.53;5122790;28;20439;-65
2022/05/21 06:17:25;;;;;;;22.27;17.93;;;;;;;13.30;78.82;100601.78;5122319;28;21130;-64
2022/05/21 06:19:51;;;;;;;27.20;18.37;;;;;;;13.13;78.96;100598.06;5123777;28;20461;-65
2022/05/21 06:22:18;;;;;;;19.77;17.50;;;;;;;13.29;78.49;100603.63;5122699;28;20505;-65
2022/05/21 06:24:45;;;;;;;22.10;17.20;;;;;;;13.31;78.03;100593.59;5123949;28;20518;-64
2022/05/21 06:27:12;;;;;;;21.73;16.90;;;;;;;13.56;77.30;100597.41;5114142;28;20597;-65
2022/05/21 06:29:39;;;;;;;21.70;17.30;;;;;;;13.84;75.78;100585.78;5122443;28;20489;-67
2022/05/21 06:32:07;;;;;;;18.77;16.30;;;;;;;16.00;69.00;100586.56;5122325;28;20553;-65
2022/05/21 06:34:37;;;;;;;20.53;14.10;;;;;;;17.97;60.49;100576.97;5115653;27;20522;-65
2022/05/21 06:37:05;;;;;;;15.20;11.13;;;;;;;19.56;55.62;100593.03;5142619;27;20530;-67
2022/05/21 06:39:32;;;;;;;16.90;10.83;;;;;;;18.83;56.60;100590.22;5124600;27;20453;-65
2022/05/21 06:41:58;;;;;;;13.80;10.43;;;;;;;19.57;55.01;100595.56;5110227;28;20490;-65
2022/05/21 06:44:27;;;;;;;12.40;10.87;;;;;;;18.20;57.88;100595.06;5115807;28;20461;-65
2022/05/21 06:46:54;;;;;;;13.00;10.10;;;;;;;18.44;56.93;100588.59;5120163;28;20470;-65
2022/05/21 06:49:21;;;;;;;11.97;9.70;;;;;;;18.42;56.97;100588.75;5105704;28;20522;-64
2022/05/21 06:51:47;;;;;;;14.70;10.67;;;;;;;16.94;61.34;100586.97;5096196;28;20480;-65
2022/05/21 06:54:14;;;;;;;13.27;10.87;;;;;;;16.46;63.22;100604.94;5118411;28;20540;-65
2022/05/21 06:56:41;;;;;;;12.93;9.90;;;;;;;15.50;66.16;100603.66;5118679;28;20484;-65
2022/05/21 06:59:08;;;;;;;16.60;10.73;;;;;;;15.70;66.26;100606.88;5102250;28;20463;-66
2022/05/21 07:01:36;;;;;;;13.70;11.47;;;;;;;16.06;64.99;100612.03;5103453;28;20550;-65
2022/05/21 07:04:03;;;;;;;12.43;9.70;;;;;;;16.16;64.74;100599.22;5121971;28;20485;-64
2022/05/21 07:09:14;;;;;;;13.60;9.90;;;;;;;16.30;63.94;100602.22;5122561;28;20437;-66
2022/05/21 07:11:41;;;;;;;11.20;9.50;;;;;;;15.31;66.80;100611.97;5119308;28;20466;-65
2022/05/21 07:14:07;;;;;;;13.40;9.67;;;;;;;15.66;66.61;100610.06;5104605;28;20447;-69
2022/05/21 07:16:35;;;;;;;13.93;11.60;;;;;;;15.30;67.33;100602.22;5100717;28;20577;-73
2022/05/21 07:19:02;;;;;;;11.47;10.00;;;;;;;15.23;68.28;100610.09;5100951;28;20518;-64
2022/05/21 07:21:29;;;;;;;15.27;10.30;;;;;;;15.23;68.36;100604.72;5111809;28;20496;-62
2022/05/21 07:23:55;;;;;;;16.80;10.53;;;;;;;15.16;68.36;100619.84;5121839;28;20826;-62
2022/05/21 07:26:22;;;;;;;17.43;10.17;;;;;;;15.17;68.04;100610.75;5119999;28;21002;-63
2022/05/21 07:28:48;;;;;;;12.17;9.90;;;;;;;15.19;69.19;100614.97;5116011;28;20514;-64
2022/05/21 07:31:15;;;;;;;16.80;10.10;;;;;;;15.37;67.73;100611.34;5100651;28;20502;-65
2022/05/21 07:33:43;;;;;;;15.23;10.50;;;;;;;15.49;67.51;100611.88;5099905;28;20462;-62
2022/05/21 07:36:10;;;;;;;11.70;9.47;;;;;;;15.88;66.00;100614.00;5100267;28;20509;-63
2022/05/21 07:38:37;;;;;;;16.03;9.33;;;;;;;16.17;64.49;100611.69;5100348;28;21003;-63
2022/05/21 07:41:04;;;;;;;14.37;9.47;;;;;;;15.90;65.83;100618.25;5099831;28;20578;-63
2022/05/21 07:43:31;;;;;;;11.57;8.60;;;;;;;16.30;64.60;100618.41;5114764;28;20441;-64
2022/05/21 07:45:59;;;;;;;14.37;9.10;;;;;;;15.77;65.46;100640.28;5108685;28;20462;-63
2022/05/21 07:48:26;;;;;;;14.40;8.77;;;;;;;15.76;65.58;100625.13;5115904;28;20473;-65
2022/05/21 07:50:56;;;;;;;15.20;8.73;;;;;;;15.47;66.83;100625.53;5120752;28;20481;-64
2022/05/21 07:53:24;;;;;;;10.77;8.13;;;;;;;15.43;67.32;100622.31;5104513;28;20488;-63
2022/05/21 07:55:53;;;;;;;12.53;7.90;;;;;;;15.66;66.99;100635.19;5104332;28;21005;-63
2022/05/21 07:58:23;;;;;;;12.27;8.30;;;;;;;15.42;67.49;100628.69;5093635;28;20519;-62
2022/05/21 08:00:51;;;;;;;14.60;8.80;;;;;;;15.19;68.82;100630.28;5085959;28;20557;-62
2022/05/21 08:03:17;;;;;;;16.47;8.67;;;;;;;15.59;67.40;100626.91;5118938;28;20509;-62
2022/05/21 08:05:45;;;;;;;15.00;8.60;;;;;;;15.73;66.65;100638.91;5116958;28;20486;-63
2022/05/21 08:08:13;;;;;;;10.03;8.30;;;;;;;15.74;66.57;100637.88;5120886;28;20453;-63
2022/05/21 08:10:42;;;;;;;11.43;8.07;;;;;;;15.68;65.72;100635.84;5120057;28;20553;-63
2022/05/21 08:13:10;;;;;;;11.10;7.37;;;;;;;15.87;65.76;100644.69;5121407;28;20521;-64
2022/05/21 08:15:37;;;;;;;11.13;8.23;;;;;;;15.80;65.37;100639.97;5119801;28;20469;-63
2022/05/21 08:18:05;;;;;;;10.93;7.93;;;;;;;16.10;66.24;100650.28;5118275;28;20480;-63
2022/05/21 08:20:32;;;;;;;15.23;8.33;;;;;;;16.22;65.45;100640.84;5120889;28;20469;-63
2022/05/21 08:28:28;;;;;;;16.10;8.30;;;;;;;16.18;65.35;100650.31;5120737;28;20495;-63
2022/05/21 08:30:55;;;;;;;11.77;8.10;;;;;;;16.64;63.74;100657.88;5120800;28;20488;-63
2022/05/21 08:33:22;;;;;;;14.97;8.40;;;;;;;16.16;64.13;100655.00;5117582;28;21116;-63
2022/05/21 08:35:50;;;;;;;10.07;7.60;;;;;;;16.73;63.17;100660.41;5120316;28;20470;-63
2022/05/21 08:38:16;;;;;;;14.77;8.80;;;;;;;16.56;63.23;100658.72;5121057;28;21025;-63
2022/05/21 08:40:55;;;;;;;10.73;8.10;;;;;;;16.85;62.22;100660.06;5118494;28;20529;-63
2022/05/21 08:43:25;;;;;;;11.83;8.73;;;;;;;16.81;61.87;100658.72;5121540;28;20454;-63
2022/05/21 08:46:04;;;;;;;12.37;8.30;;;;;;;16.54;63.31;100660.75;5119855;28;20477;-63
2022/05/21 08:48:32;;;;;;;9.40;7.50;;;;;;;16.17;64.72;100656.69;5116019;28;20447;-63
2022/05/21 08:51:00;;;;;;;13.93;8.20;;;;;;;15.96;64.69;100652.63;5099897;28;20550;-63
2022/05/21 08:53:28;;;;;;;14.90;9.17;;;;;;;15.63;65.81;100662.47;5099921;28;20466;-63
2022/05/21 08:55:58;;;;;;;13.77;9.00;;;;;;;15.92;65.65;100664.75;5098884;28;20481;-63
2022/05/21 08:58:30;;;;;;;20.73;9.47;;;;;;;16.66;64.50;100664.78;5100500;28;20515;-63
2022/05/21 09:00:57;;;;;;;14.87;9.07;;;;;;;16.91;61.59;100668.34;5103983;28;20470;-63
2022/05/21 09:03:25;;;;;;;9.37;7.40;;;;;;;18.02;59.23;100665.72;5104331;28;20491;-63
2022/05/21 09:06:03;;;;;;;10.50;7.60;;;;;;;18.01;58.83;100664.03;5122094;28;20489;-63
2022/05/21 09:08:35;;;;;;;14.70;7.37;;;;;;;17.86;60.47;100658.53;5124828;28;20480;-61
2022/05/21 09:11:06;;;;;;;10.63;7.30;;;;;;;18.29;57.84;100658.91;5122596;28;20998;-62
2022/05/21 09:13:37;;;;;;;11.10;7.73;;;;;;;17.94;58.69;100666.59;5121924;28;21142;-62
2022/05/21 09:18:50;;;;;;;15.00;8.80;;;;;;;16.29;63.93;100685.03;5123392;28;20518;-62
2022/05/21 09:21:20;;;;;;;17.07;9.80;;;;;;;16.25;64.78;100688.22;5120405;28;20469;-63
2022/05/21 09:23:49;;;;;;;14.03;9.30;;;;;;;16.39;64.82;100682.19;5123994;28;20462;-62
2022/05/21 09:26:20;;;;;;;16.07;10.00;;;;;;;16.62;64.23;100686.91;5122483;28;20577;-63
2022/05/21 09:28:48;;;;;;;14.83;9.27;;;;;;;17.60;60.98;100680.44;5122720;28;20474;-63
2022/05/21 09:31:15;;;;;;;12.17;8.50;;;;;;;17.24;61.11;100678.22;5122823;28;20478;-63
2022/05/21 09:33:43;;;;;;;11.57;7.90;;;;;;;16.64;61.95;100683.00;5122697;28;20502;-62
2022/05/21 09:36:17;;;;;;;13.97;8.80;;;;;;;16.38;63.17;100692.13;5120263;28;21096;-63
2022/05/21 09:38:51;;;;;;;13.77;8.50;;;;;;;16.36;63.04;100683.34;5123056;28;20449;-62
2022/05/21 09:41:20;;;;;;;15.43;8.30;;;;;;;16.56;63.48;100683.00;5115602;28;20481;-62
2022/05/21 09:47:09;;;;;;;14.20;7.70;;;;;;;16.23;63.44;100692.94;5017655;28;20477;-63
2022/05/21 09:49:36;;;;;;;12.43;7.63;;;;;;;15.85;64.71;100696.09;5000460;28;20463;-62
2022/05/21 09:52:04;;;;;;;15.90;7.90;;;;;;;15.86;64.56;100703.16;5048714;28;20499;-62
2022/05/21 09:54:36;;;;;;;10.93;8.13;;;;;;;15.74;64.99;100713.34;5102521;28;20534;-63
2022/05/21 09:57:05;;;;;;;12.30;7.73;;;;;;;15.84;64.89;100717.81;5102460;28;20558;-63
2022/05/21 09:59:34;;;;;;;10.33;7.70;;;;;;;15.91;65.42;100718.84;5102793;28;20471;-63
2022/05/21 10:02:02;;;;;;;14.43;9.10;;;;;;;15.87;65.20;100712.94;5097787;28;20479;-65
2022/05/21 10:04:40;;;;;;;11.90;9.10;;;;;;;16.16;65.03;100719.75;5103460;28;20462;-63
2022/05/21 10:10:58;;;;;;;10.87;8.00;;;;;;;16.56;64.64;100718.97;5094324;28;20470;-65
2022/05/21 10:12:49;;;;;;;12.73;7.87;;;;;;;16.31;63.04;100723.47;5101661;28;20506;-64
2022/05/21 10:15:20;;;;;;;11.97;8.10;;;;;;;16.50;63.37;100727.72;5101402;28;21046;-63
2022/05/21 10:17:49;;;;;;;12.57;8.03;;;;;;;16.31;63.59;100733.44;5097460;28;20446;-63
2022/05/21 10:20:20;;;;;;;12.53;8.43;;;;;;;16.65;63.05;100727.06;5102017;28;20478;-63
2022/05/21 10:22:51;;;;;;;16.43;9.87;;;;;;;16.71;63.05;100727.22;5102616;28;20430;-64
2022/05/21 10:25:19;;;;;;;10.80;7.33;;;;;;;16.29;62.23;100724.66;5099689;28;21010;-63
2022/05/21 10:28:06;;;;;;;11.47;7.07;;;;;;;16.79;61.74;100725.53;5102551;28;20479;-63
2022/05/21 10:30:54;;;;;;;12.23;8.00;;;;;;;17.30;61.40;100716.19;5095503;28;20523;-62
2022/05/21 10:33:29;;;;;;;11.70;7.77;;;;;;;17.39;60.24;100713.47;5100853;28;20870;-64
2022/05/21 10:36:05;;;;;;;11.87;8.13;;;;;;;17.49;59.14;100722.22;5121935;28;20477;-62
2022/05/21 10:38:56;;;;;;;13.63;8.53;;;;;;;17.07;59.19;100723.34;5118596;28;20481;-63
2022/05/21 10:41:34;;;;;;;12.50;7.67;;;;;;;17.00;61.40;100725.06;5109461;28;20506;-65
2022/05/21 10:44:19;;;;;;;12.50;7.50;;;;;;;16.65;61.93;100725.22;5116630;28;20462;-64
2022/05/21 10:46:52;;;;;;;16.93;7.60;;;;;;;16.24;64.01;100727.03;5121707;28;20918;-64
2022/05/21 10:49:32;;;;;;;7.10;6.30;;;;;;;16.31;64.63;100726.19;5111838;28;20450;-64
2022/05/21 10:52:02;;;;;;;11.30;6.90;;;;;;;16.99;62.00;100717.94;5107188;28;20482;-63
2022/05/21 10:54:38;;;;;;;11.33;8.13;;;;;;;17.38;60.80;100730.72;5118178;28;20438;-66
2022/05/21 10:57:28;;;;;;;10.73;7.77;;;;;;;17.15;59.72;100727.88;5121522;28;20545;-63
2022/05/21 11:00:04;;;;;;;11.90;7.10;;;;;;;17.19;59.80;100713.88;5104850;28;20475;-64
2022/05/21 11:03:08;;;;;;;12.80;7.83;;;;;;;17.01;60.52;100718.63;5110905;28;20477;-63
2022/05/21 11:05:45;;;;;;;12.20;7.50;;;;;;;17.14;59.71;100724.34;5115016;28;20487;-62
2022/05/21 11:08:17;;;;;;;10.00;7.17;;;;;;;17.35;59.90;100721.09;5121824;28;20446;-67
2022/05/21 11:10:52;;;;;;;9.50;7.50;;;;;;;17.94;59.50;100730.69;5119724;28;20512;-63
2022/05/21 11:13:22;;;;;;;12.57;7.77;;;;;;;19.07;55.90;100730.03;5104120;28;20502;-63
2022/05/21 11:15:53;;;;;;;11.63;7.13;;;;;;;19.26;53.86;100720.50;5097253;28;20495;-63
2022/05/21 11:18:23;;;;;;;10.27;6.00;;;;;;;19.44;53.32;100714.72;5108024;28;20447;-63
2022/05/21 11:21:03;;;;;;;13.13;6.83;;;;;;;19.31;53.21;100711.81;5087751;28;20485;-63
2022/05/21 11:23:34;;;;;;;9.40;7.10;;;;;;;19.39;52.09;100703.63;5115151;28;20585;-64
2022/05/21 11:26:05;;;;;;;10.60;5.93;;;;;;;20.02;52.06;100705.88;5107714;28;20494;-66
2022/05/21 11:28:35;;;;;;;8.37;5.97;;;;;;;20.51;49.77;100711.38;5098751;28;20451;-62
2022/05/21 11:31:06;;;;;;;12.70;7.03;;;;;;;19.96;52.08;100699.31;5100436;28;20509;-65
2022/05/21 11:39:06;;;;;;;13.53;7.67;;;;;;;17.65;57.91;100722.16;5082538;28;20515;-63
2022/05/21 11:41:58;;;;;;;10.20;6.40;;;;;;;17.46;59.51;100722.56;5119573;28;20554;-66
2022/05/21 11:47:51;;;;;;;10.40;6.70;;;;;;;17.47;58.61;100725.09;5109686;28;20476;-61
2022/05/21 11:50:25;;;;;;;13.53;7.03;;;;;;;17.48;58.48;100729.50;5087082;28;20506;-63
2022/05/21 11:53:05;;;;;;;11.10;7.30;;;;;;;18.44;56.35;100716.66;5109805;28;20777;-64
2022/05/21 11:55:48;;;;;;;9.13;6.63;;;;;;;19.39;54.02;100719.88;5118059;28;20470;-63
2022/05/21 11:58:15;;;;;;;10.03;6.53;;;;;;;20.03;51.71;100719.25;5111914;28;21022;-62
2022/05/21 12:00:47;;;;;;;10.10;7.57;;;;;;;18.88;53.93;100717.00;5109477;28;20974;-62